GW0759 Weather Reports


Display with metric or nautical units.
time (UTC)temp
F
wind
direction
speed
MPH
gust
MPH
rain 1hr
in
rain 24hr
in
rain mn
in
humidity
%
barometer
mb
20220704023331 84 321 2.0 4.0 0.00 0.00 0.00 63 1012.5
20220704022821 84 321 1.0 4.0 0.00 0.00 0.00 63 1012.4
20220704022332 84 317 2.0 4.0 0.00 0.00 0.00 62 1012.4
20220704021822 85 317 2.0 4.0 0.00 0.00 0.00 61 1012.3
20220704021333 85 310 3.0 5.0 0.00 0.00 0.00 60 1012.3
20220704020823 86 325 3.0 5.0 0.00 0.00 0.00 59 1012.4
20220704020333 86 317 4.0 5.0 0.00 0.00 0.00 57 1012.2
20220704015827 87 306 2.0 3.0 0.00 0.00 0.00 57 1012.3
20220704015317 86 129 1.0 4.0 0.00 0.00 0.00 57 1012.3
20220704014827 87 258 1.0 4.0 0.00 0.00 0.00 57 1012.3
20220704014317 87 324 2.0 10.0 0.00 0.00 0.00 56 1012.3
20220704013828 88 313 5.0 10.0 0.00 0.00 0.00 55 1012.3
20220704013318 89 301 5.0 10.0 0.00 0.00 0.00 53 1012.3
20220704012829 90 323 6.0 10.0 0.00 0.00 0.00 51 1012.4
20220704012319 91 333 6.0 9.0 0.00 0.00 0.00 49 1012.3
20220704011829 92 331 5.0 9.0 0.00 0.00 0.00 47 1012.4
20220704011324 95 257 3.0 4.0 0.00 0.00 0.00 43 1012.4
20220704010833 96 159 1.0 3.0 0.00 0.00 0.00 35 1012.2
20220704010324 97 158 1.0 3.0 0.00 0.00 0.00 35 1012.2
20220704005835 97 101 1.0 4.0 0.00 0.00 0.00 35 1012.2
20220704005325 98 123 2.0 4.0 0.00 0.00 0.00 34 1012.2
20220704004835 98 96 2.0 6.0 0.00 0.00 0.00 34 1012.2
20220704004325 98 151 2.0 6.0 0.00 0.00 0.00 33 1012.1
20220704003817 98 74 3.0 6.0 0.00 0.00 0.00 33 1012.1
20220704003331 96 92 2.0 8.0 0.00 0.00 0.00 35 1012.1
20220704002821 96 109 3.0 8.0 0.00 0.00 0.00 35 1012.0
20220704002332 96 82 2.0 6.0 0.00 0.00 0.00 34 1012.0
20220704001822 97 131 3.0 6.0 0.00 0.00 0.00 33 1012.0
20220704001334 97 91 3.0 6.0 0.00 0.00 0.00 33 1012.0
20220704000823 97 97 2.0 6.0 0.00 0.00 0.00 32 1012.0
20220704000333 98 110 2.0 6.0 0.00 0.00 0.00 32 1012.0
20220703235823 99 135 2.0 7.0 0.00 0.00 0.00 30 1012.0
20220703235317 101 102 2.0 6.0 0.00 0.00 0.00 29 1011.9
20220703234827 100 96 2.0 5.0 0.00 0.00 0.00 31 1011.9
20220703234317 99 106 3.0 8.0 0.00 0.00 0.00 30 1012.0
20220703233828 101 173 3.0 11.0 0.00 0.00 0.00 28 1012.0
20220703233318 102 108 3.0 9.0 0.00 0.00 0.00 28 1011.9
20220703232828 101 109 4.0 9.0 0.00 0.00 0.00 29 1011.9
20220703232319 101 84 3.0 8.0 0.00 0.00 0.00 30 1011.9
20220703231830 102 205 5.0 10.0 0.00 0.00 0.00 28 1011.9
20220703231319 103 100 4.0 9.0 0.00 0.00 0.00 29 1011.8
20220703230833 104 172 4.0 8.0 0.00 0.00 0.00 28 1011.9
20220703230323 103 169 3.0 10.0 0.00 0.00 0.00 28 1011.8
20220703225833 103 72 4.0 10.0 0.00 0.25 0.00 29 1011.8
20220703225323 101 96 3.0 8.0 0.00 0.25 0.00 30 1011.8
20220703224833 102 69 4.0 9.0 0.00 0.25 0.00 30 1011.9
20220703224323 100 167 4.0 9.0 0.00 0.25 0.00 32 1011.9
20220703223833 101 115 3.0 10.0 0.00 0.25 0.00 30 1012.0
20220703223324 103 131 4.0 12.0 0.00 0.25 0.00 29 1012.0
20220703222819 102 156 4.0 7.0 0.00 0.25 0.00 30 1012.0
20220703222329 102 98 4.0 9.0 0.00 0.25 0.00 30 1012.0
20220703221820 102 94 3.0 9.0 0.00 0.25 0.00 29 1012.1
20220703221329 102 144 3.0 9.0 0.00 0.25 0.00 30 1012.0
20220703220819 103 123 6.0 11.0 0.00 0.25 0.00 29 1012.1
20220703220329 103 144 4.0 9.0 0.00 0.25 0.00 31 1012.0
20220703215820 104 153 5.0 11.0 0.00 0.38 0.00 29 1012.0
20220703215329 104 81 4.0 11.0 0.00 0.38 0.00 30 1012.0
20220703214819 103 93 3.0 8.0 0.00 0.38 0.00 30 1012.0
20220703214335 104 99 4.0 8.0 0.00 0.38 0.00 31 1012.0
20220703213825 104 166 3.0 11.0 0.00 0.38 0.00 32 1012.1
20220703213336 101 85 4.0 11.0 0.00 0.38 0.00 33 1012.0
20220703212827 103 110 5.0 11.0 0.00 0.38 0.00 31 1012.1
20220703212318 103 116 4.0 9.0 0.00 0.38 0.00 32 1012.1
20220703211828 103 163 5.0 9.0 0.00 0.38 0.00 31 1012.1
20220703211318 103 98 3.0 11.0 0.00 0.38 0.00 33 1012.1
20220703210830 104 96 5.0 10.0 0.00 0.38 0.00 31 1012.1
20220703210324 104 101 5.0 10.0 0.00 0.38 0.00 32 1012.1
20220703205835 102 171 5.0 11.0 0.00 0.38 0.00 33 1012.3
20220703205325 104 101 4.0 12.0 0.00 0.38 0.00 32 1012.2
20220703204835 104 96 5.0 12.0 0.00 0.38 0.00 32 1012.2
20220703204326 104 111 5.0 12.0 0.00 0.38 0.00 31 1012.3
20220703203817 105 53 7.0 12.0 0.00 0.38 0.00 31 1012.2
20220703203328 104 80 5.0 11.0 0.00 0.38 0.00 32 1012.2
20220703202818 103 92 4.0 11.0 0.00 0.38 0.00 32 1012.2
20220703202329 102 126 4.0 11.0 0.00 0.38 0.00 32 1012.4
20220703201825 102 149 4.0 10.0 0.00 0.38 0.00 33 1012.3
20220703201334 102 87 5.0 12.0 0.00 0.38 0.00 32 1012.5
20220703200825 102 140 6.0 12.0 0.00 0.38 0.00 33 1012.6
20220703200336 102 131 4.0 10.0 0.00 0.38 0.00 34 1012.7
20220703195827 101 153 5.0 10.0 0.00 0.38 0.00 32 1012.8
20220703195336 102 123 5.0 11.0 0.00 0.38 0.00 32 1012.8
20220703194825 102 95 4.0 11.0 0.00 0.38 0.00 34 1012.8
20220703194336 101 181 4.0 10.0 0.00 0.38 0.00 36 1012.8
20220703193830 101 79 4.0 8.0 0.00 0.38 0.00 35 1012.8
20220703193321 100 71 3.0 12.0 0.00 0.38 0.00 35 1012.9
20220703192832 99 154 5.0 12.0 0.00 0.38 0.00 36 1013.0
20220703192322 100 103 5.0 10.0 0.00 0.38 0.00 37 1013.0
20220703191833 99 208 4.0 10.0 0.00 0.38 0.00 37 1013.0
20220703191323 99 172 3.0 8.0 0.00 0.38 0.00 36 1013.1
20220703190833 99 159 4.0 8.0 0.00 0.38 0.00 35 1013.2
20220703190324 98 103 2.0 8.0 0.00 0.38 0.00 40 1013.2
20220703185819 97 98 2.0 9.0 0.00 0.38 0.00 40 1013.3
20220703185329 97 175 4.0 10.0 0.00 0.38 0.00 39 1013.4
20220703184818 98 137 5.0 10.0 0.00 0.38 0.00 39 1013.5
20220703184329 98 82 2.0 7.0 0.00 0.38 0.00 42 1013.7
20220703183820 97 175 3.0 8.0 0.00 0.38 0.00 41 1013.7
20220703183331 97 181 4.0 12.0 0.00 0.38 0.00 41 1013.8
20220703182821 98 185 6.0 12.0 0.00 0.38 0.00 40 1013.8
20220703182332 98 149 4.0 9.0 0.00 0.38 0.00 41 1013.8
20220703181824 97 161 5.0 9.0 0.00 0.38 0.00 42 1013.9
20220703181317 98 88 3.0 7.0 0.00 0.38 0.00 43 1014.0
20220703180828 97 117 4.0 8.0 0.00 0.38 0.00 43 1014.1
20220703180318 99 105 3.0 10.0 0.00 0.38 0.00 42 1014.2
20220703175828 98 193 4.0 10.0 0.00 0.38 0.00 42 1014.3
20220703175319 99 193 5.0 10.0 0.00 0.38 0.00 42 1014.4
20220703174829 98 80 4.0 9.0 0.00 0.38 0.00 46 1014.5
20220703174320 95 88 3.0 9.0 0.00 0.38 0.00 48 1014.5
20220703173831 95 179 3.0 7.0 0.00 0.38 0.00 46 1014.7
20220703173323 95 203 5.0 8.0 0.00 0.38 0.00 45 1014.6
20220703172834 95 110 2.0 7.0 0.00 0.38 0.00 48 1014.8
20220703172323 94 130 3.0 9.0 0.00 0.38 0.00 52 1014.8
20220703171834 94 86 4.0 9.0 0.00 0.38 0.00 50 1014.9
20220703171324 94 184 4.0 9.0 0.00 0.38 0.00 50 1014.9
20220703170834 94 164 4.0 8.0 0.00 0.38 0.00 51 1015.0
20220703170324 94 99 5.0 8.0 0.00 0.38 0.00 52 1015.0
20220703165834 93 126 3.0 9.0 0.00 0.38 0.00 54 1014.9
20220703165324 93 108 4.0 9.0 0.00 0.38 0.00 53 1015.0
20220703164819 93 108 4.0 8.0 0.00 0.38 0.00 53 1015.0
20220703164329 92 92 3.0 8.0 0.00 0.38 0.00 56 1014.9
20220703163820 92 110 3.0 8.0 0.00 0.38 0.00 56 1014.9
20220703163331 92 109 4.0 8.0 0.00 0.38 0.00 56 1014.8
20220703162822 91 96 3.0 7.0 0.00 0.38 0.00 59 1015.0
20220703162332 90 148 3.0 7.0 0.00 0.38 0.00 61 1014.9
20220703161822 90 166 3.0 6.0 0.00 0.38 0.00 61 1014.9
20220703161332 90 184 1.0 10.0 0.00 0.38 0.00 60 1014.9
20220703160827 89 150 4.0 10.0 0.00 0.38 0.00 61 1014.9
20220703160319 89 154 2.0 7.0 0.00 0.38 0.00 63 1014.9
20220703155829 89 207 4.0 7.0 0.00 0.38 0.00 63 1014.9
20220703155319 89 158 3.0 8.0 0.00 0.38 0.00 64 1014.8
20220703154830 89 119 3.0 8.0 0.00 0.38 0.00 64 1014.8
20220703154320 88 213 2.0 6.0 0.00 0.38 0.00 65 1014.8
20220703153832 87 115 4.0 6.0 0.00 0.38 0.00 65 1014.9
20220703153322 87 171 3.0 7.0 0.00 0.38 0.00 68 1014.8
20220703152817 87 123 2.0 6.0 0.00 0.38 0.00 66 1014.8
20220703152327 87 175 3.0 6.0 0.00 0.38 0.00 67 1014.8
20220703151837 87 93 3.0 8.0 0.00 0.38 0.00 68 1014.8
20220703151326 86 192 4.0 8.0 0.00 0.38 0.00 67 1014.9
20220703150817 86 138 4.0 8.0 0.00 0.38 0.00 68 1014.9
20220703150328 86 96 3.0 7.0 0.00 0.38 0.00 70 1014.9
20220703145818 85 151 4.0 8.0 0.00 0.38 0.00 69 1014.8
20220703145328 85 188 4.0 8.0 0.00 0.38 0.00 70 1014.8
20220703144819 85 192 4.0 8.0 0.00 0.38 0.00 70 1014.7
20220703144333 85 197 4.0 9.0 0.00 0.38 0.00 70 1014.7
20220703143823 85 119 4.0 8.0 0.00 0.38 0.00 73 1014.7
20220703143334 84 188 4.0 8.0 0.00 0.38 0.00 72 1014.6
20220703142824 84 132 4.0 9.0 0.00 0.38 0.00 72 1014.5
20220703142334 84 196 3.0 9.0 0.00 0.38 0.00 73 1014.5
20220703141824 83 83 4.0 10.0 0.00 0.38 0.00 74 1014.5
20220703141334 83 165 3.0 7.0 0.00 0.38 0.00 74 1014.4
20220703140824 83 130 4.0 10.0 0.00 0.38 0.00 76 1014.4
20220703140320 83 156 5.0 10.0 0.00 0.38 0.00 76 1014.5
20220703135830 82 171 3.0 10.0 0.00 0.38 0.00 77 1014.4
20220703135321 82 195 5.0 10.0 0.00 0.38 0.00 77 1014.5
20220703134832 82 138 4.0 10.0 0.00 0.38 0.00 77 1014.4
20220703134323 82 198 3.0 9.0 0.00 0.38 0.00 77 1014.4
20220703133833 81 182 4.0 9.0 0.00 0.38 0.00 78 1014.4
20220703133322 81 123 5.0 9.0 0.00 0.38 0.00 79 1014.4
20220703132834 81 162 5.0 10.0 0.00 0.38 0.00 79 1014.3
20220703132324 81 223 6.0 10.0 0.00 0.38 0.00 79 1014.3
20220703131819 80 97 4.0 8.0 0.00 0.38 0.00 81 1014.2
20220703131329 80 182 4.0 8.0 0.00 0.38 0.00 81 1014.1
20220703130819 80 170 3.0 7.0 0.00 0.38 0.00 82 1014.1
20220703130329 80 173 4.0 9.0 0.00 0.38 0.00 83 1014.1
20220703125819 80 144 3.0 10.0 0.00 0.38 0.00 83 1014.1
20220703125330 79 196 3.0 10.0 0.00 0.38 0.00 83 1014.0
20220703124819 79 139 3.0 9.0 0.00 0.38 0.00 84 1014.0
20220703124331 79 175 5.0 9.0 0.00 0.38 0.00 84 1014.0
20220703123826 79 163 4.0 9.0 0.00 0.38 0.00 84 1013.9
20220703123336 79 169 4.0 9.0 0.00 0.38 0.00 84 1013.8
20220703122826 79 124 3.0 8.0 0.00 0.38 0.00 85 1013.8
20220703122336 79 165 4.0 8.0 0.00 0.38 0.00 85 1013.8
20220703121827 78 140 3.0 6.0 0.00 0.38 0.00 85 1013.8
20220703121318 78 95 3.0 5.0 0.00 0.38 0.00 85 1013.6
20220703120830 78 126 2.0 6.0 0.00 0.38 0.00 85 1013.7
20220703120320 78 150 3.0 7.0 0.00 0.38 0.00 85 1013.7
20220703115830 78 100 3.0 6.0 0.00 0.38 0.00 85 1013.6
20220703115325 78 146 2.0 7.0 0.00 0.38 0.00 86 1013.7
20220703114835 78 180 2.0 6.0 0.00 0.38 0.00 86 1013.5
20220703114326 78 112 2.0 5.0 0.00 0.38 0.00 86 1013.5
20220703113836 78 154 3.0 5.0 0.00 0.38 0.00 86 1013.4
20220703113327 78 167 3.0 5.0 0.00 0.38 0.00 85 1013.3
20220703112818 78 77 2.0 4.0 0.00 0.38 0.00 85 1013.3
20220703112328 78 131 2.0 6.0 0.00 0.38 0.00 85 1013.3
20220703111817 78 86 3.0 5.0 0.00 0.38 0.00 85 1013.3
20220703111330 78 134 3.0 5.0 0.00 0.38 0.00 85 1013.2
20220703110821 78 151 2.0 5.0 0.00 0.38 0.00 85 1013.2
20220703110332 78 100 2.0 5.0 0.00 0.38 0.00 85 1013.1
20220703105824 78 93 2.0 6.0 0.00 0.38 0.00 85 1013.1
20220703105335 78 113 3.0 6.0 0.00 0.38 0.00 85 1013.1
20220703104825 78 89 2.0 4.0 0.00 0.38 0.00 84 1013.1
20220703104334 78 91 2.0 5.0 0.00 0.38 0.00 84 1013.1
20220703103824 78 106 2.0 5.0 0.00 0.38 0.00 84 1013.0
20220703103318 78 113 2.0 4.0 0.00 0.38 0.00 84 1013.1
20220703102828 78 143 2.0 5.0 0.00 0.38 0.00 84 1013.1
20220703102319 78 124 2.0 5.0 0.00 0.38 0.00 84 1013.0
20220703101830 78 113 2.0 4.0 0.00 0.38 0.00 84 1013.0
20220703101319 78 96 2.0 4.0 0.00 0.38 0.00 84 1013.1
20220703100830 78 126 2.0 4.0 0.00 0.38 0.00 84 1013.1
20220703100322 78 144 2.0 4.0 0.00 0.38 0.00 84 1013.0
20220703095832 78 128 1.0 3.0 0.00 0.38 0.00 84 1013.0
20220703095324 78 115 2.0 4.0 0.00 0.38 0.00 84 1013.0
20220703094819 78 101 3.0 6.0 0.00 0.38 0.00 85 1012.9
20220703094328 77 136 1.0 3.0 0.00 0.38 0.00 85 1012.9
20220703093819 77 142 1.0 3.0 0.00 0.38 0.00 85 1012.9
20220703093329 77 142 2.0 3.0 0.00 0.38 0.00 86 1012.8
20220703092820 77 111 1.0 4.0 0.00 0.38 0.00 86 1012.7
20220703092331 77 86 2.0 4.0 0.00 0.38 0.00 86 1012.7
20220703091820 77 148 2.0 4.0 0.00 0.38 0.00 86 1012.8
20220703091331 77 113 2.0 4.0 0.00 0.38 0.00 85 1012.7
20220703090824 77 96 2.0 6.0 0.00 0.38 0.00 86 1012.7
20220703090335 77 119 2.0 6.0 0.00 0.38 0.00 86 1012.7
20220703085826 77 82 2.0 3.0 0.00 0.38 0.00 86 1012.6
20220703085316 77 90 2.0 3.0 0.00 0.38 0.00 86 1012.7
20220703084826 77 93 2.0 4.0 0.00 0.38 0.00 86 1012.7
20220703084316 78 93 2.0 4.0 0.00 0.38 0.00 86 1012.7
20220703083826 78 104 3.0 4.0 0.00 0.38 0.00 86 1012.7
20220703083336 78 104 2.0 4.0 0.00 0.38 0.00 85 1012.7
20220703082826 78 104 2.0 4.0 0.00 0.38 0.00 85 1012.7
20220703082320 78 104 2.0 4.0 0.00 0.38 0.00 85 1012.6
20220703081830 78 104 2.0 3.0 0.00 0.38 0.00 84 1012.4
20220703081321 78 104 1.0 3.0 0.00 0.38 0.00 84 1012.4
20220703080832 78 104 2.0 4.0 0.00 0.38 0.00 84 1012.4
20220703080322 78 107 2.0 6.0 0.00 0.38 0.00 83 1012.3
20220703075832 78 98 2.0 3.0 0.00 0.38 0.00 83 1012.3
20220703075323 79 86 2.0 6.0 0.00 0.38 0.00 83 1012.4
20220703074834 79 116 2.0 7.0 0.00 0.38 0.00 83 1012.3
20220703074328 79 85 2.0 7.0 0.00 0.38 0.00 83 1012.2
20220703073819 79 108 2.0 4.0 0.00 0.38 0.00 83 1012.2
20220703073330 79 136 1.0 4.0 0.00 0.38 0.00 83 1012.1
20220703072821 79 95 2.0 6.0 0.00 0.38 0.00 83 1012.2
20220703072331 79 71 1.0 6.0 0.00 0.38 0.00 83 1012.2
20220703071821 79 90 2.0 4.0 0.00 0.38 0.00 83 1012.2
20220703071331 79 121 2.0 5.0 0.00 0.38 0.00 83 1012.1
20220703070821 79 101 2.0 7.0 0.00 0.38 0.00 82 1012.0
20220703070331 79 105 2.0 7.0 0.00 0.38 0.00 82 1012.1
20220703065823 79 91 2.0 6.0 0.00 0.38 0.00 82 1012.1
20220703065335 79 92 3.0 6.0 0.00 0.38 0.00 82 1012.1
20220703064825 79 76 2.0 3.0 0.00 0.38 0.00 82 1012.1
20220703064336 79 84 2.0 6.0 0.00 0.38 0.00 82 1012.1
20220703063825 79 113 2.0 6.0 0.00 0.38 0.00 82 1012.1
20220703063334 79 94 2.0 6.0 0.00 0.38 0.00 82 1012.0
20220703062825 79 98 2.0 5.0 0.00 0.38 0.00 81 1012.1
20220703062335 79 81 3.0 6.0 0.00 0.38 0.00 81 1012.1
20220703061830 79 116 2.0 6.0 0.00 0.38 0.00 81 1012.1
20220703061320 79 106 2.0 6.0 0.00 0.38 0.00 81 1012.1
20220703060831 79 99 2.0 4.0 0.00 0.38 0.00 81 1012.1
20220703060320 79 99 2.0 6.0 0.00 0.38 0.00 81 1012.1
20220703055832 80 97 2.0 6.0 0.00 0.38 0.00 80 1012.1
20220703055322 80 99 2.0 4.0 0.00 0.38 0.00 81 1012.1
20220703054832 80 101 2.0 6.0 0.00 0.38 0.00 81 1012.1
20220703054322 80 88 3.0 6.0 0.00 0.38 0.00 80 1012.1
20220703053816 80 93 2.0 6.0 0.00 0.38 0.00 80 1012.2
20220703053326 80 86 2.0 6.0 0.00 0.38 0.00 80 1012.2
20220703052817 80 86 2.0 6.0 0.00 0.38 0.00 80 1012.2
20220703052327 80 108 1.0 4.0 0.00 0.38 0.00 80 1012.2
20220703051818 80 90 1.0 4.0 0.00 0.38 0.00 79 1012.3
20220703051328 81 94 2.0 4.0 0.00 0.38 0.00 79 1012.2
20220703050819 81 98 1.0 6.0 0.00 0.38 0.00 79 1012.1
20220703050329 81 88 1.0 4.0 0.00 0.38 0.00 79 1012.2
20220703045831 81 88 2.0 6.0 0.00 0.38 0.38 78 1012.2
20220703045325 81 141 2.0 6.0 0.00 0.38 0.38 78 1012.1
20220703044816 81 84 2.0 4.0 0.00 0.38 0.38 78 1012.2
20220703044327 81 84 2.0 6.0 0.00 0.38 0.38 78 1012.1
20220703043817 81 76 3.0 7.0 0.00 0.38 0.38 78 1012.0
20220703043329 81 101 3.0 7.0 0.00 0.38 0.38 78 1012.0
20220703042819 81 88 2.0 4.0 0.00 0.38 0.38 77 1012.0
20220703042330 81 103 2.0 6.0 0.00 0.38 0.38 77 1011.9
20220703041820 82 84 2.0 7.0 0.00 0.38 0.38 76 1011.8
20220703041331 82 84 3.0 8.0 0.00 0.38 0.38 76 1011.8
20220703040825 82 73 3.0 8.0 0.00 0.38 0.38 76 1011.9
20220703040335 82 22 2.0 7.0 0.00 0.38 0.38 76 1011.8
20220703035826 82 82 2.0 4.0 0.00 0.38 0.38 75 1011.8
20220703035336 82 86 1.0 5.0 0.00 0.38 0.38 76 1011.7
20220703034826 82 101 2.0 5.0 0.00 0.38 0.38 76 1011.6
20220703034336 82 118 2.0 6.0 0.00 0.38 0.38 76 1011.6
20220703033828 82 103 2.0 5.0 0.00 0.38 0.38 75 1011.4
20220703033318 82 96 2.0 7.0 0.00 0.38 0.38 75 1011.3
20220703032833 82 91 3.0 7.0 0.00 0.38 0.38 75 1011.2
20220703032324 82 90 2.0 6.0 0.00 0.38 0.38 75 1011.2
20220703031833 83 96 3.0 6.0 0.00 0.38 0.38 75 1011.0
20220703031324 82 86 3.0 6.0 0.00 0.38 0.38 75 1010.9
20220703030834 82 134 2.0 4.0 0.00 0.38 0.38 75 1010.9
20220703030325 83 134 2.0 6.0 0.00 0.38 0.38 75 1010.9
20220703025816 83 98 3.0 6.0 0.00 0.38 0.38 75 1010.6
20220703025328 83 89 2.0 6.0 0.00 0.38 0.38 74 1010.6
20220703024822 83 80 3.0 6.0 0.00 0.38 0.38 74 1010.5
20220703024332 83 94 3.0 6.0 0.00 0.38 0.38 74 1010.4
20220703023820 83 122 2.0 5.0 0.00 0.38 0.38 74 1010.4